Showell, Maryland
Current Conditions -  °F | °C
As of 5:53 AM on Friday 24 Oct 2014 (Local Time) from KOXB Reporting Station
Overcast Overcast  
Wind Chill: 54°   Ceiling: 4400
Heat Index: 54°   Visibility: 10mi
Dew Point: 46°   Wind: 6mph
Humidity: 75%   Direction: 310°NW
Pressure: 29.87"   Gusts: NA
Location:  38.4°N, 75.22°W
Report Text: KOXB 240953Z AUTO 31005KT 10SM OVC044 12/08 A2987 RMK AO2 SLP114 T01220078 TSNO
Loading
Personal Weather Stations






























Interactive Weather Map
Tropical Storm Tracking
New forecast layout! Learn more

10-Day Weather Forecast

Advertisements
Track Severe Weather on mobile